Mont Saint Michel — FNMT — position and weather

sailwx.info

Track history (hours):
 
Tides and Currents Weather Stations Pressure Air Temp Water Temp Dewpoint Dewpoint Depression Visibility Wind Speed Wind Dir Waves Ship Positions

Mont Saint Michel

Last reported at 2015-May-05 13:33 UTC. Time now 2015-May-05 14:16 UTC.
Position N 49°17' W 000°15'.

Length 173 m; beam 29 m.

Type: Ship. MMSI: 227023100.

Date/timePositionNaut miles runAvg speedWind from/ knotsBaromVisibWave heightAir tempDewpointWater temp
2015-May-05 13:33N 49°17' W 000°15'3 2.8
2015-May-05 12:33N 49°20' W 000°14'1918.6
2015-May-05 11:33N 49°38' W 000°22'4320.4
2015-May-05 09:27N 50°18' W 000°47'1820.2
2015-May-05 08:33N 50°34' W 000°59'1514.9
2015-May-05 07:33N 50°49' W 001°07'0 0.5
2015-May-05 06:34N 50°49' W 001°06'0 0.2
2015-May-05 05:33N 50°49' W 001°06'1313.3
2015-May-05 04:34N 50°37' W 000°57'1311.7
2015-May-05 03:26N 50°24' W 000°50'2612.2
2015-May-05 01:20N 50°01' W 000°34'1012.6
2015-May-05 00:33N 49°52' W 000°29'1212.1
2015-May-04 23:34N 49°40' W 000°23'1111.4
2015-May-04 22:33N 49°29' W 000°17'1111.2
2015-May-04 21:33N 49°18' W 000°15'1 1.0
2015-May-04 20:34N 49°17' W 000°15'0 0.0
2015-May-04 19:34N 49°17' W 000°15'1010.1
2015-May-04 18:33N 49°27' W 000°15'1919.1
2015-May-04 17:33N 49°45' W 000°28'3818.8
2015-May-04 15:33N 50°20' W 000°49'1918.6
2015-May-04 14:33N 50°37' W 000°58'1212.2
2015-May-04 13:33N 50°49' W 001°06'0 0.0
2015-May-04 12:33N 50°49' W 001°06'4 3.8
2015-May-04 11:34N 50°45' W 001°05'2019.5
2015-May-04 10:33N 50°27' W 000°54'2619.6
2015-May-04 09:13N 50°02' W 000°38'1319.5
2015-May-04 08:34N 49°50' W 000°31'1919.2
2015-May-04 07:33N 49°32' W 000°21'1615.6
2015-May-04 06:34N 49°17' W 000°15'0 0.1
2015-May-04 05:33N 49°17' W 000°15'0 0.1
2015-May-04 04:34N 49°17' W 000°15'1413.7
2015-May-04 03:33N 49°31' W 000°20'1716.7
2015-May-04 02:33N 49°46' W 000°29'4214.1
2015-May-03 23:33N 50°26' W 000°51'1414.3
2015-May-03 22:33N 50°39' W 000°59'1010.2
2015-May-03 21:33N 50°49' W 001°06'0 0.0
2015-May-03 20:33N 50°49' W 001°06'5 5.3
2015-May-03 19:33N 50°44' W 001°03'1818.2
2015-May-03 18:33N 50°27' W 000°51'2618.7
2015-May-03 17:11N 50°03' W 000°38'1218.6
2015-May-03 16:33N 49°52' W 000°32'1918.9
2015-May-03 15:33N 49°34' W 000°22'1716.9
2015-May-03 14:33N 49°18' W 000°15'0 0.4
2015-May-03 13:33N 49°17' W 000°15'3 3.1
2015-May-03 12:33N 49°20' W 000°14'1919.3
2015-May-03 11:34N 49°39' W 000°23'4220.5
2015-May-03 09:29N 50°19' W 000°44'1920.6
2015-May-03 08:34N 50°36' W 000°58'1413.6
2015-May-03 07:33N 50°49' W 001°06'0 0.4
2015-May-03 06:33N 50°49' W 001°06'0 0.4
2015-May-03 05:34N 50°49' W 001°06'1312.9
2015-May-03 04:34N 50°37' W 000°57'1211.7
2015-May-03 03:33N 50°27' W 000°49'3411.3
2015-May-03 00:33N 49°55' W 000°29'1211.7
2015-May-02 23:33N 49°44' W 000°23'1111.2
2015-May-02 22:33N 49°34' W 000°18'1110.8
2015-May-02 21:33N 49°23' W 000°15'6 5.6
2015-May-02 20:33N 49°17' W 000°15'0 0.0
2015-May-02 19:33N 49°17' W 000°15'1010.2
2015-May-02 18:34N 49°27' W 000°18'1919.0
2015-May-02 17:33N 49°45' W 000°29'4418.8
2015-May-02 15:14N 50°26' W 000°54'1319.0
2015-May-02 14:33N 50°38' W 000°58'1211.5
2015-May-02 13:33N 50°49' W 001°06'0 0.0
2015-May-02 12:33N 50°49' W 001°06'4 4.0
2015-May-02 11:34N 50°45' W 001°05'1919.0
2015-May-02 10:33N 50°27' W 000°55'3919.7
2015-May-02 08:33N 49°50' W 000°33'1919.2
2015-May-02 07:33N 49°32' W 000°21'1615.5
2015-May-02 06:33N 49°17' W 000°15'0 0.0
2015-May-02 05:34N 49°17' W 000°15'0 0.1
2015-May-02 04:33N 49°17' W 000°15'1312.6
2015-May-02 03:33N 49°30' W 000°18'1414.1
2015-May-02 02:33N 49°43' W 000°27'4113.7
2015-May-01 23:32N 50°21' W 000°50'1414.3
2015-May-01 22:34N 50°34' W 000°57'1414.1
2015-May-01 21:34N 50°47' W 001°06'2 1.6
2015-May-01 20:34N 50°49' W 001°06'0 0.0
2015-May-01 19:33N 50°49' W 001°06'0 0.0
2015-May-01 18:34N 50°49' W 001°06'5 4.8
2015-May-01 17:34N 50°44' W 001°04'1817.5
2015-May-01 16:33N 50°28' W 000°52'1817.8
2015-May-01 15:33N 50°11' W 000°42'1818.1
2015-May-01 14:33N 49°55' W 000°33'1616.2
2015-May-01 13:34N 49°39' W 000°26'1716.7
2015-May-01 12:34N 49°24' W 000°16'6 6.3
2015-May-01 11:33N 49°17' W 000°15'0 0.0
2015-May-01 10:33N 49°17' W 000°15'0 0.0
2015-May-01 09:33N 49°17' W 000°15'0 0.0
2015-May-01 08:33N 49°17' W 000°15'0 0.0
2015-May-01 07:33N 49°17' W 000°15'0 0.0
2015-May-01 06:33N 49°17' W 000°15'0 0.0
2015-May-01 05:33N 49°17' W 000°15'9 9.3
2015-May-01 04:34N 49°27' W 000°16'1111.3
2015-May-01 03:34N 49°37' W 000°24'1211.6
2015-May-01 02:33N 49°47' W 000°31'2712.8
2015-May-01 00:27N 50°13' W 000°45'1516.4
2015-Apr-30 23:33N 50°27' W 000°53'1616.0
2015-Apr-30 22:33N 50°42' W 001°01'8 7.7
2015-Apr-30 21:33N 50°49' W 001°06'0 0.0
2015-Apr-30 20:34N 50°49' W 001°06'6 6.1
2015-Apr-30 19:33N 50°43' W 001°01'1817.8
2015-Apr-30 18:33N 50°27' W 000°51'2120.7
2015-Apr-30 17:33N 50°07' W 000°41'2020.5
2015-Apr-30 16:33N 49°48' W 000°31'2020.3
2015-Apr-30 15:33N 49°29' W 000°20'1211.8
2015-Apr-30 14:33N 49°17' W 000°15'0 0.0
2015-Apr-30 13:33N 49°17' W 000°15'0 0.1
2015-Apr-30 12:34N 49°17' W 000°15'1817.6
2015-Apr-30 11:33N 49°35' W 000°21'2019.8
2015-Apr-30 10:33N 49°53' W 000°34'2620.7
2015-Apr-30 09:16N 50°18' W 000°47'1521.0
2015-Apr-30 08:33N 50°32' W 000°55'1817.7
2015-Apr-30 07:33N 50°48' W 001°07'1 0.9
2015-Apr-30 06:33N 50°49' W 001°06'0 0.1
2015-Apr-30 05:34N 50°49' W 001°06'1212.2
2015-Apr-30 04:33N 50°38' W 000°58'1312.8
2015-Apr-30 03:33N 50°26' W 000°51'2711.2
2015-Apr-30 01:11N 50°00' W 000°38'711.9
2015-Apr-30 00:33N 49°53' W 000°34'1212.3
2015-Apr-29 23:33N 49°42' W 000°27'1212.4
2015-Apr-29 22:34N 49°31' W 000°19'1212.1
2015-Apr-29 21:34N 49°19' W 000°15'2 1.6
2015-Apr-29 20:33N 49°17' W 000°15'0 0.0
2015-Apr-29 19:33N 49°17' W 000°15'1313.0
2015-Apr-29 18:33N 49°30' W 000°17'2121.2
2015-Apr-29 17:33N 49°50' W 000°30'3919.5
2015-Apr-29 15:33N 50°26' W 000°54'1818.1
2015-Apr-29 14:33N 50°43' W 001°01'6 6.2
2015-Apr-29 13:33N 50°49' W 001°06'0 0.0
2015-Apr-29 12:33N 50°49' W 001°06'5 4.7
2015-Apr-29 11:34N 50°44' W 001°04'1817.8
2015-Apr-29 10:34N 50°28' W 000°54'3919.4
2015-Apr-29 08:34N 49°51' W 000°32'2019.7
2015-Apr-29 07:34N 49°33' W 000°22'1616.1
2015-Apr-29 06:33N 49°17' W 000°15'0 0.0
2015-Apr-29 05:33N 49°17' W 000°15'0 0.1
2015-Apr-29 04:33N 49°17' W 000°15'1515.1
2015-Apr-29 03:34N 49°32' W 000°22'1716.5
2015-Apr-29 02:33N 49°48' W 000°28'3415.3
2015-Apr-29 00:21N 50°19' W 000°47'1215.7
2015-Apr-28 23:34N 50°31' W 000°54'1515.0
2015-Apr-28 22:33N 50°44' W 001°04'5 4.5
2015-Apr-28 21:33N 50°49' W 001°06'0 0.0
2015-Apr-28 20:33N 50°49' W 001°06'4 4.1
2015-Apr-28 19:34N 50°45' W 001°05'1919.2
2015-Apr-28 18:34N 50°27' W 000°55'4020.1
2015-Apr-28 16:33N 49°49' W 000°31'2019.7
2015-Apr-28 15:33N 49°31' W 000°21'1414.0
2015-Apr-28 14:34N 49°17' W 000°15'0 0.0
2015-Apr-28 13:34N 49°17' W 000°15'2 2.2
2015-Apr-28 12:34N 49°20' W 000°14'2020.2
2015-Apr-28 11:34N 49°39' W 000°24'5020.8
2015-Apr-28 09:08N 50°25' W 000°53'1220.7
2015-Apr-28 08:34N 50°37' W 000°58'1312.7
2015-Apr-28 07:33N 50°49' W 001°06'0 0.0
2015-Apr-28 06:33N 50°49' W 001°06'0 0.1
2015-Apr-28 05:34N 50°49' W 001°06'1413.4
2015-Apr-28 04:33N 50°36' W 000°57'1110.5
2015-Apr-28 03:31N 50°26' W 000°52'2813.7
2015-Apr-28 01:31N 50°00' W 000°36'1010.2
2015-Apr-28 00:33N 49°51' W 000°31'1010.3
2015-Apr-27 23:34N 49°42' W 000°25'1110.8
2015-Apr-27 22:33N 49°31' W 000°21'1111.1
2015-Apr-27 21:33N 49°21' W 000°15'4 3.6
2015-Apr-27 20:33N 49°17' W 000°15'0 0.0
2015-Apr-27 19:33N 49°17' W 000°15'1211.8
2015-Apr-27 18:33N 49°29' W 000°19'2019.5
2015-Apr-27 17:33N 49°47' W 000°31'3818.6
2015-Apr-27 15:30N 50°23' W 000°50'1819.5
2015-Apr-27 14:33N 50°40' W 000°60'9 9.0
2015-Apr-27 13:33N 50°49' W 001°06'0 0.0
2015-Apr-27 12:33N 50°49' W 001°06'5 5.3
2015-Apr-27 11:33N 50°44' W 001°03'1716.8
2015-Apr-27 10:33N 50°28' W 000°52'2019.2
2015-Apr-27 09:29N 50°09' W 000°42'1819.7
2015-Apr-27 08:33N 49°52' W 000°32'1919.4
2015-Apr-27 07:34N 49°33' W 000°22'1716.7
2015-Apr-27 06:33N 49°17' W 000°15'0 0.0
2015-Apr-27 05:33N 49°17' W 000°15'0 0.1
2015-Apr-27 04:34N 49°17' W 000°15'1716.8
2015-Apr-27 03:34N 49°33' W 000°23'1212.0
2015-Apr-27 02:33N 49°45' W 000°29'4715.7
2015-Apr-26 23:33N 50°29' W 000°54'1515.2
2015-Apr-26 22:33N 50°43' W 001°02'6 6.0
2015-Apr-26 21:33N 50°49' W 001°06'0 0.0
2015-Apr-26 20:33N 50°49' W 001°06'5 4.9
2015-Apr-26 19:34N 50°44' W 001°04'1918.9
2015-Apr-26 18:33N 50°26' W 000°54'2819.5
2015-Apr-26 17:08N 50°01' W 000°36'1119.1
2015-Apr-26 16:34N 49°50' W 000°30'1818.3
2015-Apr-26 15:34N 49°33' W 000°21'1616.3
2015-Apr-26 14:34N 49°17' W 000°15'0 0.0
2015-Apr-26 13:34N 49°17' W 000°15'2 1.9
2015-Apr-26 12:33N 49°19' W 000°15'1918.5
2015-Apr-26 11:33N 49°37' W 000°23'1817.9
2015-Apr-26 10:33N 49°53' W 000°35'2719.2
2015-Apr-26 09:09N 50°18' W 000°51'1219.5
2015-Apr-26 08:33N 50°29' W 000°56'1818.3
2015-Apr-26 07:34N 50°46' W 001°06'2 2.3
2015-Apr-26 06:33N 50°49' W 001°06'0 0.1
2015-Apr-26 05:33N 50°49' W 001°06'1312.7
2015-Apr-26 04:34N 50°37' W 000°58'1414.1
2015-Apr-26 03:33N 50°24' W 000°48'2311.2
2015-Apr-26 01:29N 50°02' W 000°39'1010.8
2015-Apr-26 00:33N 49°53' W 000°34'1110.8
2015-Apr-25 23:33N 49°42' W 000°28'1111.1
2015-Apr-25 22:33N 49°32' W 000°22'1111.3
2015-Apr-25 21:33N 49°22' W 000°15'4 4.5
2015-Apr-25 20:34N 49°17' W 000°15'0 0.0
2015-Apr-25 19:33N 49°17' W 000°15'1212.4
2015-Apr-25 18:33N 49°30' W 000°17'1918.7
2015-Apr-25 17:33N 49°47' W 000°29'3818.9
2015-Apr-25 15:33N 50°22' W 000°48'1918.8
2015-Apr-25 14:33N 50°40' W 000°60'10 9.9
2015-Apr-25 13:33N 50°49' W 001°06'  
Track history (hours):
 
Tides and Currents Weather Stations Pressure Air Temp Water Temp Dewpoint Dewpoint Depression Visibility Wind Speed Wind Dir Waves Ship Positions

Mont Saint Michel

Last reported at 2015-May-05 13:33 UTC. Time now 2015-May-05 14:16 UTC.
Position N 49°17' W 000°15'.

Length 173 m; beam 29 m.

Type: Ship. MMSI: 227023100.

Date/timePositionNaut miles runAvg speedWind from/ knotsBaromVisibWave heightAir tempDewpointWater temp
2015-May-05 13:33N 49°17' W 000°15'3 2.8
2015-May-05 12:33N 49°20' W 000°14'1918.6
2015-May-05 11:33N 49°38' W 000°22'4320.4
2015-May-05 09:27N 50°18' W 000°47'1820.2
2015-May-05 08:33N 50°34' W 000°59'1514.9
2015-May-05 07:33N 50°49' W 001°07'0 0.5
2015-May-05 06:34N 50°49' W 001°06'0 0.2
2015-May-05 05:33N 50°49' W 001°06'1313.3
2015-May-05 04:34N 50°37' W 000°57'1311.7
2015-May-05 03:26N 50°24' W 000°50'2612.2
2015-May-05 01:20N 50°01' W 000°34'1012.6
2015-May-05 00:33N 49°52' W 000°29'1212.1
2015-May-04 23:34N 49°40' W 000°23'1111.4
2015-May-04 22:33N 49°29' W 000°17'1111.2
2015-May-04 21:33N 49°18' W 000°15'1 1.0
2015-May-04 20:34N 49°17' W 000°15'0 0.0
2015-May-04 19:34N 49°17' W 000°15'1010.1
2015-May-04 18:33N 49°27' W 000°15'1919.1
2015-May-04 17:33N 49°45' W 000°28'3818.8
2015-May-04 15:33N 50°20' W 000°49'1918.6
2015-May-04 14:33N 50°37' W 000°58'1212.2
2015-May-04 13:33N 50°49' W 001°06'0 0.0
2015-May-04 12:33N 50°49' W 001°06'4 3.8
2015-May-04 11:34N 50°45' W 001°05'2019.5
2015-May-04 10:33N 50°27' W 000°54'2619.6
2015-May-04 09:13N 50°02' W 000°38'1319.5
2015-May-04 08:34N 49°50' W 000°31'1919.2
2015-May-04 07:33N 49°32' W 000°21'1615.6
2015-May-04 06:34N 49°17' W 000°15'0 0.1
2015-May-04 05:33N 49°17' W 000°15'0 0.1
2015-May-04 04:34N 49°17' W 000°15'1413.7
2015-May-04 03:33N 49°31' W 000°20'1716.7
2015-May-04 02:33N 49°46' W 000°29'4214.1
2015-May-03 23:33N 50°26' W 000°51'1414.3
2015-May-03 22:33N 50°39' W 000°59'1010.2
2015-May-03 21:33N 50°49' W 001°06'0 0.0
2015-May-03 20:33N 50°49' W 001°06'5 5.3
2015-May-03 19:33N 50°44' W 001°03'1818.2
2015-May-03 18:33N 50°27' W 000°51'2618.7
2015-May-03 17:11N 50°03' W 000°38'1218.6
2015-May-03 16:33N 49°52' W 000°32'1918.9
2015-May-03 15:33N 49°34' W 000°22'1716.9
2015-May-03 14:33N 49°18' W 000°15'0 0.4
2015-May-03 13:33N 49°17' W 000°15'3 3.1
2015-May-03 12:33N 49°20' W 000°14'1919.3
2015-May-03 11:34N 49°39' W 000°23'4220.5
2015-May-03 09:29N 50°19' W 000°44'1920.6
2015-May-03 08:34N 50°36' W 000°58'1413.6
2015-May-03 07:33N 50°49' W 001°06'0 0.4
2015-May-03 06:33N 50°49' W 001°06'0 0.4
2015-May-03 05:34N 50°49' W 001°06'1312.9
2015-May-03 04:34N 50°37' W 000°57'1211.7
2015-May-03 03:33N 50°27' W 000°49'3411.3
2015-May-03 00:33N 49°55' W 000°29'1211.7
2015-May-02 23:33N 49°44' W 000°23'1111.2
2015-May-02 22:33N 49°34' W 000°18'1110.8
2015-May-02 21:33N 49°23' W 000°15'6 5.6
2015-May-02 20:33N 49°17' W 000°15'0 0.0
2015-May-02 19:33N 49°17' W 000°15'1010.2
2015-May-02 18:34N 49°27' W 000°18'1919.0
2015-May-02 17:33N 49°45' W 000°29'4418.8
2015-May-02 15:14N 50°26' W 000°54'1319.0
2015-May-02 14:33N 50°38' W 000°58'1211.5
2015-May-02 13:33N 50°49' W 001°06'0 0.0
2015-May-02 12:33N 50°49' W 001°06'4 4.0
2015-May-02 11:34N 50°45' W 001°05'1919.0
2015-May-02 10:33N 50°27' W 000°55'3919.7
2015-May-02 08:33N 49°50' W 000°33'1919.2
2015-May-02 07:33N 49°32' W 000°21'1615.5
2015-May-02 06:33N 49°17' W 000°15'0 0.0
2015-May-02 05:34N 49°17' W 000°15'0 0.1
2015-May-02 04:33N 49°17' W 000°15'1312.6
2015-May-02 03:33N 49°30' W 000°18'1414.1
2015-May-02 02:33N 49°43' W 000°27'4113.7
2015-May-01 23:32N 50°21' W 000°50'1414.3
2015-May-01 22:34N 50°34' W 000°57'1414.1
2015-May-01 21:34N 50°47' W 001°06'2 1.6
2015-May-01 20:34N 50°49' W 001°06'0 0.0
2015-May-01 19:33N 50°49' W 001°06'0 0.0
2015-May-01 18:34N 50°49' W 001°06'5 4.8
2015-May-01 17:34N 50°44' W 001°04'1817.5
2015-May-01 16:33N 50°28' W 000°52'1817.8
2015-May-01 15:33N 50°11' W 000°42'1818.1
2015-May-01 14:33N 49°55' W 000°33'1616.2
2015-May-01 13:34N 49°39' W 000°26'1716.7
2015-May-01 12:34N 49°24' W 000°16'6 6.3
2015-May-01 11:33N 49°17' W 000°15'0 0.0
2015-May-01 10:33N 49°17' W 000°15'0 0.0
2015-May-01 09:33N 49°17' W 000°15'0 0.0
2015-May-01 08:33N 49°17' W 000°15'0 0.0
2015-May-01 07:33N 49°17' W 000°15'0 0.0
2015-May-01 06:33N 49°17' W 000°15'0 0.0
2015-May-01 05:33N 49°17' W 000°15'9 9.3
2015-May-01 04:34N 49°27' W 000°16'1111.3
2015-May-01 03:34N 49°37' W 000°24'1211.6
2015-May-01 02:33N 49°47' W 000°31'2712.8
2015-May-01 00:27N 50°13' W 000°45'1516.4
2015-Apr-30 23:33N 50°27' W 000°53'1616.0
2015-Apr-30 22:33N 50°42' W 001°01'8 7.7
2015-Apr-30 21:33N 50°49' W 001°06'0 0.0
2015-Apr-30 20:34N 50°49' W 001°06'6 6.1
2015-Apr-30 19:33N 50°43' W 001°01'1817.8
2015-Apr-30 18:33N 50°27' W 000°51'2120.7
2015-Apr-30 17:33N 50°07' W 000°41'2020.5
2015-Apr-30 16:33N 49°48' W 000°31'2020.3
2015-Apr-30 15:33N 49°29' W 000°20'1211.8
2015-Apr-30 14:33N 49°17' W 000°15'0 0.0
2015-Apr-30 13:33N 49°17' W 000°15'0 0.1
2015-Apr-30 12:34N 49°17' W 000°15'1817.6
2015-Apr-30 11:33N 49°35' W 000°21'2019.8
2015-Apr-30 10:33N 49°53' W 000°34'2620.7
2015-Apr-30 09:16N 50°18' W 000°47'1521.0
2015-Apr-30 08:33N 50°32' W 000°55'1817.7
2015-Apr-30 07:33N 50°48' W 001°07'1 0.9
2015-Apr-30 06:33N 50°49' W 001°06'0 0.1
2015-Apr-30 05:34N 50°49' W 001°06'1212.2
2015-Apr-30 04:33N 50°38' W 000°58'1312.8
2015-Apr-30 03:33N 50°26' W 000°51'2711.2
2015-Apr-30 01:11N 50°00' W 000°38'711.9
2015-Apr-30 00:33N 49°53' W 000°34'1212.3
2015-Apr-29 23:33N 49°42' W 000°27'1212.4
2015-Apr-29 22:34N 49°31' W 000°19'1212.1
2015-Apr-29 21:34N 49°19' W 000°15'2 1.6
2015-Apr-29 20:33N 49°17' W 000°15'0 0.0
2015-Apr-29 19:33N 49°17' W 000°15'1313.0
2015-Apr-29 18:33N 49°30' W 000°17'2121.2
2015-Apr-29 17:33N 49°50' W 000°30'3919.5
2015-Apr-29 15:33N 50°26' W 000°54'1818.1
2015-Apr-29 14:33N 50°43' W 001°01'6 6.2
2015-Apr-29 13:33N 50°49' W 001°06'0 0.0
2015-Apr-29 12:33N 50°49' W 001°06'5 4.7
2015-Apr-29 11:34N 50°44' W 001°04'1817.8
2015-Apr-29 10:34N 50°28' W 000°54'3919.4
2015-Apr-29 08:34N 49°51' W 000°32'2019.7
2015-Apr-29 07:34N 49°33' W 000°22'1616.1
2015-Apr-29 06:33N 49°17' W 000°15'0 0.0
2015-Apr-29 05:33N 49°17' W 000°15'0 0.1
2015-Apr-29 04:33N 49°17' W 000°15'1515.1
2015-Apr-29 03:34N 49°32' W 000°22'1716.5
2015-Apr-29 02:33N 49°48' W 000°28'3415.3
2015-Apr-29 00:21N 50°19' W 000°47'1215.7
2015-Apr-28 23:34N 50°31' W 000°54'1515.0
2015-Apr-28 22:33N 50°44' W 001°04'5 4.5
2015-Apr-28 21:33N 50°49' W 001°06'0 0.0
2015-Apr-28 20:33N 50°49' W 001°06'4 4.1
2015-Apr-28 19:34N 50°45' W 001°05'1919.2
2015-Apr-28 18:34N 50°27' W 000°55'4020.1
2015-Apr-28 16:33N 49°49' W 000°31'2019.7
2015-Apr-28 15:33N 49°31' W 000°21'1414.0
2015-Apr-28 14:34N 49°17' W 000°15'0 0.0
2015-Apr-28 13:34N 49°17' W 000°15'2 2.2
2015-Apr-28 12:34N 49°20' W 000°14'2020.2
2015-Apr-28 11:34N 49°39' W 000°24'5020.8
2015-Apr-28 09:08N 50°25' W 000°53'1220.7
2015-Apr-28 08:34N 50°37' W 000°58'1312.7
2015-Apr-28 07:33N 50°49' W 001°06'0 0.0
2015-Apr-28 06:33N 50°49' W 001°06'0 0.1
2015-Apr-28 05:34N 50°49' W 001°06'1413.4
2015-Apr-28 04:33N 50°36' W 000°57'1110.5
2015-Apr-28 03:31N 50°26' W 000°52'2813.7
2015-Apr-28 01:31N 50°00' W 000°36'1010.2
2015-Apr-28 00:33N 49°51' W 000°31'1010.3
2015-Apr-27 23:34N 49°42' W 000°25'1110.8
2015-Apr-27 22:33N 49°31' W 000°21'1111.1
2015-Apr-27 21:33N 49°21' W 000°15'4 3.6
2015-Apr-27 20:33N 49°17' W 000°15'0 0.0
2015-Apr-27 19:33N 49°17' W 000°15'1211.8
2015-Apr-27 18:33N 49°29' W 000°19'2019.5
2015-Apr-27 17:33N 49°47' W 000°31'3818.6
2015-Apr-27 15:30N 50°23' W 000°50'1819.5
2015-Apr-27 14:33N 50°40' W 000°60'9 9.0
2015-Apr-27 13:33N 50°49' W 001°06'0 0.0
2015-Apr-27 12:33N 50°49' W 001°06'5 5.3
2015-Apr-27 11:33N 50°44' W 001°03'1716.8
2015-Apr-27 10:33N 50°28' W 000°52'2019.2
2015-Apr-27 09:29N 50°09' W 000°42'1819.7
2015-Apr-27 08:33N 49°52' W 000°32'1919.4
2015-Apr-27 07:34N 49°33' W 000°22'1716.7
2015-Apr-27 06:33N 49°17' W 000°15'0 0.0
2015-Apr-27 05:33N 49°17' W 000°15'0 0.1
2015-Apr-27 04:34N 49°17' W 000°15'1716.8
2015-Apr-27 03:34N 49°33' W 000°23'1212.0
2015-Apr-27 02:33N 49°45' W 000°29'4715.7
2015-Apr-26 23:33N 50°29' W 000°54'1515.2
2015-Apr-26 22:33N 50°43' W 001°02'6 6.0
2015-Apr-26 21:33N 50°49' W 001°06'0 0.0
2015-Apr-26 20:33N 50°49' W 001°06'5 4.9
2015-Apr-26 19:34N 50°44' W 001°04'1918.9
2015-Apr-26 18:33N 50°26' W 000°54'2819.5
2015-Apr-26 17:08N 50°01' W 000°36'1119.1
2015-Apr-26 16:34N 49°50' W 000°30'1818.3
2015-Apr-26 15:34N 49°33' W 000°21'1616.3
2015-Apr-26 14:34N 49°17' W 000°15'0 0.0
2015-Apr-26 13:34N 49°17' W 000°15'2 1.9
2015-Apr-26 12:33N 49°19' W 000°15'1918.5
2015-Apr-26 11:33N 49°37' W 000°23'1817.9
2015-Apr-26 10:33N 49°53' W 000°35'2719.2
2015-Apr-26 09:09N 50°18' W 000°51'1219.5
2015-Apr-26 08:33N 50°29' W 000°56'1818.3
2015-Apr-26 07:34N 50°46' W 001°06'2 2.3
2015-Apr-26 06:33N 50°49' W 001°06'0 0.1
2015-Apr-26 05:33N 50°49' W 001°06'1312.7
2015-Apr-26 04:34N 50°37' W 000°58'1414.1
2015-Apr-26 03:33N 50°24' W 000°48'2311.2
2015-Apr-26 01:29N 50°02' W 000°39'1010.8
2015-Apr-26 00:33N 49°53' W 000°34'1110.8
2015-Apr-25 23:33N 49°42' W 000°28'1111.1
2015-Apr-25 22:33N 49°32' W 000°22'1111.3
2015-Apr-25 21:33N 49°22' W 000°15'4 4.5
2015-Apr-25 20:34N 49°17' W 000°15'0 0.0
2015-Apr-25 19:33N 49°17' W 000°15'1212.4
2015-Apr-25 18:33N 49°30' W 000°17'1918.7
2015-Apr-25 17:33N 49°47' W 000°29'3818.9
2015-Apr-25 15:33N 50°22' W 000°48'1918.8
2015-Apr-25 14:33N 50°40' W 000°60'10 9.9
2015-Apr-25 13:33N 50°49' W 001°06'  

Dump ship's entire track history